ACT        NSW        VIC        QLD        SA        WA        TAS        NT        INFO        CALC            by VK5ZD

Past Date/Time: (dd/mm/yyyy hh:mm or blank for current data)    

  Atmospheric Gas Attenuation - ITU Rec 676-11   --------------- dB/100km ---------------
WA Stations Date Time Temp RH % AH g/m3 Dew Point Wind Direction Speed kph Gust kph Barometer mB Rainfall Since 9am 24GHz 47GHz 76GHz 122GHz 134GHz 241GHz
Albany 06/09 09:00 14.7 64 8.06 8.1 22 1013.1 8 18.4 24.8 37.2 97.6 90.3 310.2
Albany Airport 06/09 20:20 12.3 72 7.82 7.4 13 17 1031.1 0 18.0 25.7 38.2 99.9 91.3 313.3
Badgingarra 06/09 20:20 12 88 9.38 10.1 17 20 1013.1 0 21.4 27.7 44.0 115.6 111.4 383.8
Barimunya 06/09 20:20 18.5 35 5.54 2.8 20 28 1013.1 0 12.9 20.2 26.7 69.4 56.8 193.3
Barrow Island 06/09 20:20 22 69 13.39 16.1 43 50 1016.4 0 29.3 31.3 54.8 144.5 150.4 521.2
Bedout Island 06/09 19:00 22.4 75 14.89 17.8 41 46 1013.8 0 32.5 33.7 60.8 160.6 170.4 591.0
Beverley 06/09 09:00 13.8 91 10.84 12.3 11 1013.1 0.8 24.4 29.7 49.2 129.4 129.2 446.1
Bickley 06/09 20:20 10.7 83 8.15 7.9 22 39 1013.1 0 18.8 26.1 39.5 103.7 96.3 330.6
Boolgeeda 06/09 20:20 18.2 37 5.75 3.3 11 19 1013.1 0 13.4 20.5 27.5 71.5 59.4 202.2
Bridgetown 06/09 20:20 10.6 73 7.13 6 6 9 1030.2 0 16.6 25.1 36.2 94.5 84.0 287.5
Brookton 06/09 09:00 12.8 94 10.53 11.9 19 1013.1 0.4 23.8 29.5 48.4 127.5 126.4 436.4
Broome 06/09 20:20 24.1 75 16.41 19.4 17 22 1016 0 35.5 35.8 66.3 175.1 188.7 655.0
Bunbury 06/09 20:20 11.8 73 7.68 7.1 7 13 1029.5 0 17.7 25.6 37.8 98.8 89.9 308.4
Busselton Airport 06/09 20:20 9.3 78 7.01 5.7 13 17 1029.9 0 16.4 25.2 36.3 94.7 83.8 286.6
Cape Leeuwin 06/09 20:20 14.3 64 7.86 7.6 37 46 1030.9 0 18.0 25.2 37.4 97.8 89.5 307.2
Cape Naturaliste 06/09 20:20 11.1 69 6.95 5.6 24 35 1029.3 0 16.2 24.6 35.2 91.9 81.1 277.3
Carnarvon 06/09 20:20 18.8 75 12.08 14.3 30 41 1020.6 0 26.7 30.4 51.6 136.0 138.7 480.0
Christmas Creek 06/09 20:20 20.3 28 4.92 1.2 11 19 1016.2 0 11.6 19.1 24.2 62.8 49.1 166.4
Christmas Island 06/09 20:20 23.3 84 17.56 20.4 17 26 1017.3 0 38.0 38.3 72.3 191.2 208.2 722.7
Collie East 06/09 20:20 10.9 72 7.16 6.1 7 13 1013.1 0.2 16.6 24.4 35.4 92.7 82.9 283.8
Coondewanna 06/09 20:20 17 37 5.35 2.2 19 28 1013.1 0 12.6 20.2 26.5 69.0 55.8 189.4
Cunderdin Airport 06/09 20:20 13.3 71 8.2 8.2 24 32 1026.3 0 18.7 25.9 39.0 102.2 94.8 325.6
Curtin 06/09 20:20 25.9 59 14.28 17.3 17 22 1013.9 0 30.9 31.3 55.6 146.8 154.5 536.1
Dalwallinu 06/09 20:20 13.2 81 9.3 10 28 39 1024 0 21.1 27.6 43.5 114.1 109.6 377.4
Derby 06/09 20:20 26 57 13.88 16.8 13 17 1014.8 0 30.0 30.7 54.0 142.4 149.1 517.1
Dwellingup 06/09 20:20 11.5 73 7.54 6.8 22 33 1028.3 0 17.4 25.4 37.3 97.6 88.3 302.7
Eliwana Airport 06/09 20:20 19.6 35 5.91 3.7 15 24 1013.1 0 13.7 20.4 27.5 71.8 60.1 205.0
Esperance 06/09 20:20 16.4 82 11.44 13.3 24 35 1027.3 0 25.5 30.4 50.8 133.7 134.7 465.6
Esperance Airport 06/09 20:20 14.6 91 11.39 13.1 22 24 1027.5 0 25.5 30.9 51.8 136.3 137.2 474.1
Eucla 06/09 20:20 14.2 81 9.89 11 22 33 1025.6 0 22.3 28.4 45.5 119.4 116.4 401.3
Fitzroy Crossing 06/09 20:20 27.3 32 8.37 9.2 2 6 1012.4 0 18.5 22.0 32.9 86.2 80.4 277.2
Forrest 06/09 20:20 14.9 63 8.03 7.9 1023.9 0 18.3 25.1 37.5 98.1 90.5 310.8
Fortescue Dave Forrest 06/09 20:20 19.8 30 5.12 1.7 13 19 1015.5 0 12.0 19.4 25.0 64.8 51.5 174.8
Garden Island 06/09 20:20 15.1 74 9.55 10.5 32 41 1027.7 0 21.5 27.6 43.6 114.5 110.6 381.2
Geraldton Airport 06/09 20:20 15.8 85 11.44 13.3 19 26 1024 0.2 25.5 30.5 51.0 134.3 135.4 468.0
Gerangamete (Cfa) 06/09 22:20 10.9 85 8.46 8.5 13 17 1013.1 0 19.4 26.5 40.7 106.8 100.2 344.5
Giles* 06/09 22:00 27.8 27 7.26 7.1 20 32 1013.4 0 16.2 20.4 29.2 76.2 68.2 234.2
Gingin Airport 06/09 20:20 13.9 73 8.75 9.1 17 24 1026.7 0 19.9 26.6 41.0 107.4 101.4 348.8
Golden Grove 06/09 20:20 16.6 62 8.76 9.3 15 22 1013.1 0.2 19.8 25.3 39.0 102.5 97.0 333.8
Gooseberry Hill 06/09 20:20 12.4 80 8.74 9.1 13 22 1013.1 0 20.0 26.5 41.1 107.8 102.1 351.2
Gudai-Darri Mine 06/09 20:20 20.3 33 5.8 3.5 28 37 1013.1 0 13.4 20.1 26.9 70.2 58.4 199.0
Halls Creek 06/09 22:00 25.4 36 8.48 9.3 6 7 1012.9 0 18.8 22.6 34.1 89.3 83.6 288.1
Hopetoun North 06/09 20:20 14.7 91 11.46 13.2 22 32 1028.3 3.8 25.6 31.1 52.1 137.0 138.1 477.3
Hyden 06/09 09:00 14 97 11.7 13.5 9 1013.1 0 26.2 31.1 52.8 139.2 141.3 488.4
Iron Bridge Mine 06/09 20:20 23.3 23 4.81 1 13 17 1013.1 0 11.3 18.2 22.9 59.5 46.1 156.2
Jacup 06/09 20:20 10.5 99 9.6 10.3 19 28 1029.3 2.6 21.9 29.2 46.6 122.3 118.3 407.5
Jandakot 06/09 20:20 13.4 73 8.49 8.7 13 17 1027.4 0 19.4 26.4 40.2 105.3 98.6 339.0
Kalbarri 06/09 09:00 18.1 70 10.81 12.7 28 1019.4 8 24.1 28.4 46.7 122.9 122.3 422.7
Kalgoorlie-Boulder 06/09 20:20 12.3 89 9.67 10.5 13 17 1023.4 8 21.9 28.5 45.5 119.6 116.0 399.7
Kalumburu 06/09 22:00 26.1 81 19.83 22.6 7 13 1015.8 0 42.6 41.2 80.2 212.1 234.6 815.2
Karijini North 06/09 20:20 20 32 5.53 2.8 26 41 1014.7 0 12.9 19.9 26.2 68.2 55.8 189.7
Karnet 06/09 15:00 14.5 64 7.96 7.8 6 1013.1 0 18.2 24.7 36.9 96.8 89.2 306.5
Karratha 06/09 20:20 22.1 59 11.52 13.7 17 20 1015.4 0 25.3 28.2 47.0 123.8 125.0 432.5
Katanning Rs 06/09 20:20 8.5 90 7.69 7 13 17 1029.8 0.2 17.9 26.6 39.5 103.2 94.0 322.2
Koolan Island / Koolan Central 06/09 20:20 24.6 82 18.46 21.3 19 22 1013.1 0 39.9 39.2 75.0 198.5 217.6 755.8
Kununurra Airport 06/09 22:00 26.2 64 15.76 18.9 13 15 1014.6 0 34.0 33.7 61.6 162.8 174.2 604.8
Lake Grace 06/09 20:20 11.6 85 8.84 9.2 20 35 1028.5 0 20.2 27.5 42.6 111.8 105.8 364.1
Lancelin (Defence) 06/09 20:20 14.6 85 10.64 12.1 15 20 1025.7 0.2 23.9 29.5 48.4 127.3 126.3 435.9
Laverton 06/09 20:20 14.2 76 9.28 10 39 52 1018.7 0.2 21.0 27.1 42.6 111.9 107.4 370.0
Learmonth 06/09 20:20 19.7 70 11.89 14.1 30 37 1018.8 0 26.3 29.7 50.2 132.1 134.3 464.7
Legendre Island 06/09 20:20 22.4 66 13.11 15.7 33 41 1015.6 0 28.7 30.7 53.3 140.6 145.7 504.8
Leinster 06/09 20:20 14.1 80 9.71 10.7 26 39 1016.2 0.2 21.9 27.7 44.3 116.5 113.2 390.2
Leonora Airport 06/09 20:20 12.5 100 11 12.5 13 20 1020.9 44.2 24.8 30.7 51.1 134.5 134.6 464.7
Lombadina 06/09 20:20 24.7 78 17.65 20.6 9 13 1013.1 0 38.1 37.6 71.2 188.2 205.1 712.1
Mandora 06/09 20:20 22.4 74 14.7 17.5 17 20 1014.4 0 32.1 33.4 60.0 158.4 167.7 581.8
Mandurah 06/09 20:20 14.4 64 7.91 7.7 13 19 1028.2 0 18.1 25.2 37.4 97.9 89.8 308.4
Manjimup 06/09 20:20 9.4 81 7.33 6.3 13 17 1030.6 0.2 17.1 25.7 37.6 98.1 88.1 301.5
Marble Bar 06/09 20:20 24.1 47 10.28 12.1 11 19 1013.6 0 22.6 25.6 41.1 108.0 106.3 367.3
Mardie 06/09 20:20 23.1 34 7.03 6.4 19 24 1016.1 0 15.9 21.3 30.2 78.8 69.9 239.5
Meekatharra 06/09 20:20 14.9 75 9.56 10.5 28 37 1017.2 0.2 21.6 27.3 43.3 113.8 110.1 379.5
Millendon (Swan Valley) 06/09 20:20 14.4 69 8.53 8.8 7 20 1026.9 0 19.4 26.1 39.8 104.3 97.8 336.4
Morawa Airport 06/09 20:20 15.1 70 9.03 9.7 17 24 1023.1 0 20.4 26.6 41.3 108.4 103.2 355.4
Mount Keith 06/09 20:20 15.1 76 9.8 10.9 28 39 1013.1 0 22.1 27.5 44.0 115.6 112.7 388.6
Mount Magnet Airport 06/09 20:20 16.1 62 8.5 8.8 28 39 1020.2 0 19.3 25.3 38.6 101.1 94.8 326.1
Munglinup West 06/09 20:20 11.6 94 9.77 10.7 11 15 1027.9 0 22.2 29.1 46.6 122.3 118.9 409.8
Murchison 06/09 09:00 14.9 88 11.22 12.9 15 1017.8 8 25.1 30.1 50.4 132.6 133.2 460.3
Narrogin 06/09 09:00 11.5 89 9.19 9.8 22 1013.1 4 21.0 27.6 43.4 114.1 109.5 377.0
Newdegate 06/09 20:20 11.2 89 9.02 9.5 22 30 1028.1 0.2 20.6 28.0 43.6 114.3 108.9 374.6
Newman Airport 06/09 20:20 18.7 32 5.12 1.7 19 26 1014.9 0 12.0 19.6 25.3 65.7 52.2 177.0
Norseman Airport 06/09 20:20 15 76 9.75 10.8 19 33 1024.8 0 22.0 27.9 44.4 116.5 113.2 390.3
North Island 06/09 20:20 18.1 78 12.05 14.2 39 54 1023.9 0.8 26.7 30.7 52.2 137.3 139.9 484.0
Onslow Airport 06/09 20:20 21.9 46 8.88 9.8 17 20 1018.1 0 19.8 24.3 37.2 97.6 92.5 318.7
Paraburdoo 06/09 20:20 19.1 39 6.39 4.8 11 15 1016.4 0 14.7 21.3 29.5 76.8 66.1 225.8
Pardoo 06/09 09:00 26 58 14.12 17.2 24 1015.4 0 30.5 31.1 55.0 145.1 152.3 528.5
Paynes Find 06/09 09:00 15.6 64 8.51 8.9 4 1017.6 1 19.3 25.4 38.7 101.6 95.3 328.0
Pearce 06/09 20:20 14.6 67 8.38 8.5 20 32 1026.4 0 19.1 25.8 39.1 102.4 95.6 328.5
Perth 06/09 20:20 14.6 68 8.51 8.8 13 24 1027.4 0 19.3 26.0 39.7 103.9 97.4 334.8
Perth Airport 06/09 20:20 14.2 71 8.67 9 17 20 1026.9 0.2 19.7 26.4 40.5 106.1 99.9 343.8
Port Hedland 06/09 20:20 22.3 69 13.62 16.3 26 32 1014.6 0 29.8 31.5 55.5 146.3 152.8 529.6
Portable Btsa (Dfes) 06/09 20:10 18.7 63 10.09 11.7 13 17 1013.1 0 22.5 26.8 43.2 113.5 111.3 384.3
Portable Btsd (Dfes) 06/09 20:10 11.1 83 8.36 8.3 11 11 1013.1 0.6 19.2 26.3 40.2 105.4 98.6 338.9
Portable Btsf (Dfes) 06/09 20:00 16.3 55 7.63 7.3 0 0 1013.1 0 17.4 23.7 34.9 91.3 83.1 285.3
Portable Btsh (Dfes) 06/09 20:10 15.2 54 7.01 6.1 11 13 1013.1 0 16.1 23.0 33.0 86.4 76.6 262.4
Portable Btsj (Dfes) 06/09 20:10 13.7 68 8.05 8 9 13 1013.1 0 18.4 25.0 37.7 98.7 91.3 313.7
Portable Btsl (Dfes) 06/09 20:10 15.2 65 8.44 8.8 17 24 1013.1 0 19.2 25.2 38.5 100.9 94.6 325.3
Portable Btsm (Dfes) 06/09 20:10 16.2 62 8.55 8.9 11 11 1013.1 1 19.4 25.1 38.4 100.8 94.8 326.1
Portable Btsn (Dfes) 06/09 20:10 13.6 82 9.65 10.7 22 26 1013.1 7.6 21.8 27.7 44.2 116.2 112.8 388.9
Portable Btso (Dfes) 06/09 20:10 11.5 69 7.13 6.1 13 15 1013.1 0 16.6 24.2 35.0 91.7 81.9 280.3
Ravensthorpe 06/09 09:00 14.1 77 9.35 10.1 9 1022.6 0 21.2 27.4 43.1 113.2 108.8 375.0
Rocky Gully South 06/09 20:20 10.1 80 7.57 6.8 11 15 1013.1 0 17.6 25.3 37.4 98.1 89.2 305.7
Roebourne Airport 06/09 20:20 20.7 59 10.62 12.4 15 17 1015.3 0 23.5 27.2 44.3 116.4 115.5 399.1
Rottnest Island 06/09 20:20 15.2 66 8.57 8.9 39 50 1026.7 0 19.4 25.9 39.6 103.7 97.3 334.8
Salmon Gums Rs 06/09 20:20 13.1 93 10.61 12 13 17 1013.1 0 23.9 29.5 48.6 127.9 127.1 438.7
Shannon 06/09 20:20 8.8 89 7.75 7.1 7 9 1013.1 0 18.0 25.9 38.8 101.7 93.2 319.4
Shark Bay Airport 06/09 20:20 17.4 78 11.56 13.5 28 39 1021.2 0 25.7 30.0 50.4 132.6 134.0 463.3
Solomon Airport 06/09 20:20 18.2 36 5.6 2.9 20 32 1016.7 0 13.1 20.4 27.1 70.5 57.9 196.9
Southern Cross Airport 06/09 20:20 14.4 68 8.41 8.6 9 11 1024.5 0 19.1 25.8 39.2 102.8 96.1 330.3
Swanbourne 06/09 20:20 14.4 97 11.99 13.9 11 24 1013.1 0 26.8 31.5 53.9 141.9 144.8 500.7
Telfer 06/09 20:20 26.8 19 4.84 1.3 22 28 1012.7 0 11.2 17.6 22.1 57.3 44.5 150.8
Thevenard Island 06/09 20:20 21.8 69 13.24 15.9 33 41 1017.8 0 29.0 31.2 54.4 143.4 148.9 515.9
Troughton Island 06/09 22:00 26.4 80 19.92 22.7 20 24 1016 0 42.7 41.2 80.3 212.4 235.1 816.9
Truscott 06/09 22:00 25.9 82 19.85 22.6 11 17 1015.4 0 42.7 41.3 80.4 212.8 235.5 818.2
Walpole North 06/09 20:20 11.5 73 7.54 6.8 13 15 1030.7 0.2 17.4 25.5 37.4 97.8 88.5 303.3
Wandering 06/09 20:20 9.8 86 7.98 7.6 15 20 1013.1 0.4 18.4 26.0 39.3 103.0 95.1 326.3
Warburton 06/09 22:00 17.6 75 11.25 13.1 43 61 1014.5 2.2 25.0 29.1 48.6 128.0 128.7 444.8
West Angelas 06/09 20:20 16.8 41 5.86 3.5 15 24 1017.5 0 13.7 21.1 28.5 74.2 61.9 210.9
West Musgrave Airport 06/09 20:20 17.3 85 12.52 14.8 26 37 1013.1 5.6 27.8 31.4 54.2 142.8 146.9 508.5
Wiluna Airport 06/09 20:20 16.4 71 9.91 11.1 24 32 1015.1 0 22.3 27.3 43.8 115.1 112.4 387.9
Windy Harbour 06/09 09:00 14.6 59 7.38 6.7 28 1027.2 13 16.9 24.3 35.2 92.1 82.8 283.8
Witchcliffe West 06/09 20:20 10.5 72 6.98 5.7 13 20 1030.6 0 16.3 24.9 35.6 93.0 82.2 281.1
Wongan Hills 06/09 09:00 13.8 85 10.13 11.4 37 1021.1 0 22.9 28.7 46.5 122.2 119.9 413.7
Wyndham Airport 06/09 22:00 28.6 58 16.3 19.5 11 15 1014.5 0 34.9 33.7 62.0 163.8 176.2 612.0
Yampi Sound (Defence) 06/09 20:20 25.3 66 15.45 18.5 4 7 1018.5 0 33.4 33.7 61.2 161.6 172.4 598.4
York 06/09 09:00 13.3 97 11.21 12.8 9 1023 0.9 25.2 30.9 51.6 135.9 136.5 471.3

Last Refresh: 06-Sep-2026 22:05:14

Bureau of Meteorology